Skip Navigation Links Skip Navigation Links

Current Weather

Mount Airy/Surry County, Mount Airy, N.C.

For information only: do not use for flight planning or navigation.
Latest weather
Observation time Tuesday, June 25, 2019 2:00 PM EDT
Local time Tuesday, June 25, 2019 2:16 PM EDT
Flight conditions Visual Meteorological Conditions
Winds
Wind direction North-Northwest (330°)
Wind speed 7 mph
Visibility 10 mi.
Sky condition
Ceiling unlimited
Sky clear
Temperature 83°F
Dewpoint 67°F
Altimeter 30.04 in.Hg
Derived measurements
Relative humidity 59%
Heat index 86°F
Density altitude 2963 ft.
Remarks
Fully automated report.
Automated weather observing station with precipitation discriminator.
METAR KMWK 251800Z AUTO 33006KT 10SM CLR 28/20 A3004 RMK AO2 T02840196

Settings

Location code

InnerDrive.Weather 4.0.6770.0 Release CLR 4.0.30319.42000
Copyright ©2018 Inner Drive Technology. All rights reserved. Portions Copyright ©1986-2018 David Braverman.

Find weather

Site navigation


Skip Navigation Links

Place info

Page info

PayPal - The safer, easier way to pay online!

Return home.

Copyright ©2019 Inner Drive Technology. Purveyors of fine, hand-crafted computer software. Page printed 2019-06-25T18:16:36 UTC.